Portada
METAR-TAF:

METAR-TAF

Aeroports :

Txungking, Xina

latitud: 29-31N, longitud: 106-29E, altitud: 351 m

Observació

L'informe es va fer fa 43 minuts, a les 13:00 UTC
Vent 10 kt del Nord
Temperatura 28°C
Humitat 74%
Pressió 1001 hPa
Visibilitat 10 km o més
sense núvols per sota de 1500 mi sense presència de cumulonimbus.

METAR: ZUCK 201300Z 36005MPS CAVOK 28/23 Q1001 NOSIG

Hora: 21:43 (13:43 UTC)

Pronòstic

L'informe es va fer fa 4 hores i 34 minuts, a les 09:09 UTC
Pronòstic vàlid del 20 a les 12 UTC al 21 a les 12 UTC
Vent 6 kt del Est/Sud-Est
Visibilitat: 6000 m
Núvols disperses a una alçada de 5000 ft

TAF: ZUCK 200909Z 2012/2112 12003MPS 6000 SCT050 TX30/2108Z TN22/2021Z

Observacions i pronòstics meteorològics de més de 4000 aeroports (METAR i TAF).

Les estacions disponibles són els punts grocs i vermells al mapa.

Posi el ratolí al punt desitjat per veure el nom de l'estació.

Feu clic per veure les observacions i els pronòstics meteorològics.

Per canviar el mapa: feu clic els botons verds amb una creu de color negre per apropar; al botó verd amb un guió per allunyar la imatge; o en les fletxes verdes per a mapes adjacents.


METAR-TAF: